sensor_id;sensor_type;location;lat;lon;timestamp;temperature;humidity
1602;DHT22;794;48.592;9.634;2023-05-07T00:00:48;12.60;1.00
1602;DHT22;794;48.592;9.634;2023-05-07T00:03:16;12.40;1.00
1602;DHT22;794;48.592;9.634;2023-05-07T00:05:44;12.20;1.00
1602;DHT22;794;48.592;9.634;2023-05-07T00:08:12;12.20;1.00
1602;DHT22;794;48.592;9.634;2023-05-07T00:10:39;12.10;1.00
1602;DHT22;794;48.592;9.634;2023-05-07T00:13:05;12.40;1.00
1602;DHT22;794;48.592;9.634;2023-05-07T00:15:34;12.30;1.00
1602;DHT22;794;48.592;9.634;2023-05-07T00:18:01;12.10;1.00
1602;DHT22;794;48.592;9.634;2023-05-07T00:20:28;12.00;1.00
1602;DHT22;794;48.592;9.634;2023-05-07T00:22:55;12.10;1.00
1602;DHT22;794;48.592;9.634;2023-05-07T00:25:21;11.90;1.00
1602;DHT22;794;48.592;9.634;2023-05-07T00:27:48;12.10;1.00
1602;DHT22;794;48.592;9.634;2023-05-07T00:30:15;12.10;1.00
1602;DHT22;794;48.592;9.634;2023-05-07T00:32:43;12.20;1.00
1602;DHT22;794;48.592;9.634;2023-05-07T00:35:11;11.90;1.00
1602;DHT22;794;48.592;9.634;2023-05-07T00:37:38;12.20;1.00
1602;DHT22;794;48.592;9.634;2023-05-07T00:40:07;12.10;1.00
1602;DHT22;794;48.592;9.634;2023-05-07T00:42:34;12.20;1.00
1602;DHT22;794;48.592;9.634;2023-05-07T00:45:00;12.10;1.00
1602;DHT22;794;48.592;9.634;2023-05-07T00:47:28;12.20;1.00
1602;DHT22;794;48.592;9.634;2023-05-07T00:49:57;12.20;1.00
1602;DHT22;794;48.592;9.634;2023-05-07T00:52:25;12.30;1.00
1602;DHT22;794;48.592;9.634;2023-05-07T00:54:53;12.40;1.00
1602;DHT22;794;48.592;9.634;2023-05-07T00:57:21;12.20;1.00
1602;DHT22;794;48.592;9.634;2023-05-07T00:59:48;12.50;1.00
1602;DHT22;794;48.592;9.634;2023-05-07T01:02:15;12.30;1.00
1602;DHT22;794;48.592;9.634;2023-05-07T01:04:42;12.40;1.00
1602;DHT22;794;48.592;9.634;2023-05-07T01:07:10;12.30;1.00
1602;DHT22;794;48.592;9.634;2023-05-07T01:09:37;12.30;1.00
1602;DHT22;794;48.592;9.634;2023-05-07T01:12:04;12.10;1.00
1602;DHT22;794;48.592;9.634;2023-05-07T01:14:32;12.40;1.00
1602;DHT22;794;48.592;9.634;2023-05-07T01:16:59;12.20;1.00
1602;DHT22;794;48.592;9.634;2023-05-07T01:19:26;12.10;1.00
1602;DHT22;794;48.592;9.634;2023-05-07T01:22:02;12.20;1.00
1602;DHT22;794;48.592;9.634;2023-05-07T01:24:32;12.20;1.00
1602;DHT22;794;48.592;9.634;2023-05-07T01:26:59;12.20;1.00
1602;DHT22;794;48.592;9.634;2023-05-07T01:29:27;12.00;1.00
1602;DHT22;794;48.592;9.634;2023-05-07T01:31:56;12.10;1.00
1602;DHT22;794;48.592;9.634;2023-05-07T01:34:25;12.10;1.00
1602;DHT22;794;48.592;9.634;2023-05-07T01:36:54;11.90;1.00
1602;DHT22;794;48.592;9.634;2023-05-07T01:39:24;12.10;1.00
1602;DHT22;794;48.592;9.634;2023-05-07T01:41:54;11.90;1.00
1602;DHT22;794;48.592;9.634;2023-05-07T01:44:21;11.80;1.00
1602;DHT22;794;48.592;9.634;2023-05-07T01:46:49;11.60;1.00
1602;DHT22;794;48.592;9.634;2023-05-07T01:49:16;11.50;1.00
1602;DHT22;794;48.592;9.634;2023-05-07T01:51:43;11.50;1.00
1602;DHT22;794;48.592;9.634;2023-05-07T01:54:10;11.80;1.00
1602;DHT22;794;48.592;9.634;2023-05-07T01:56:37;11.60;1.00
1602;DHT22;794;48.592;9.634;2023-05-07T01:59:06;11.60;1.00
1602;DHT22;794;48.592;9.634;2023-05-07T02:01:32;11.70;1.00
1602;DHT22;794;48.592;9.634;2023-05-07T02:04:00;11.40;1.00
1602;DHT22;794;48.592;9.634;2023-05-07T02:06:26;11.50;1.00
1602;DHT22;794;48.592;9.634;2023-05-07T02:08:53;11.50;1.00
1602;DHT22;794;48.592;9.634;2023-05-07T02:11:20;11.60;1.00
1602;DHT22;794;48.592;9.634;2023-05-07T02:13:47;11.50;1.00
1602;DHT22;794;48.592;9.634;2023-05-07T02:16:15;11.60;1.00
1602;DHT22;794;48.592;9.634;2023-05-07T02:18:42;11.60;1.00
1602;DHT22;794;48.592;9.634;2023-05-07T02:21:10;11.20;1.00
1602;DHT22;794;48.592;9.634;2023-05-07T02:23:37;11.40;1.00
1602;DHT22;794;48.592;9.634;2023-05-07T02:26:04;11.50;1.00
1602;DHT22;794;48.592;9.634;2023-05-07T02:28:31;11.50;1.00
1602;DHT22;794;48.592;9.634;2023-05-07T02:31:01;11.50;1.00
1602;DHT22;794;48.592;9.634;2023-05-07T02:33:30;11.50;1.00
1602;DHT22;794;48.592;9.634;2023-05-07T02:35:59;11.30;1.00
1602;DHT22;794;48.592;9.634;2023-05-07T02:38:31;11.40;1.00
1602;DHT22;794;48.592;9.634;2023-05-07T02:40:58;11.20;1.00
1602;DHT22;794;48.592;9.634;2023-05-07T02:43:25;11.10;1.00
1602;DHT22;794;48.592;9.634;2023-05-07T02:46:00;11.30;1.00
1602;DHT22;794;48.592;9.634;2023-05-07T02:48:30;11.00;1.00
1602;DHT22;794;48.592;9.634;2023-05-07T02:50:58;11.00;1.00
1602;DHT22;794;48.592;9.634;2023-05-07T02:53:26;11.00;1.00
1602;DHT22;794;48.592;9.634;2023-05-07T02:55:53;11.10;1.00
1602;DHT22;794;48.592;9.634;2023-05-07T02:58:20;11.20;1.00
1602;DHT22;794;48.592;9.634;2023-05-07T03:00:46;11.10;1.00
1602;DHT22;794;48.592;9.634;2023-05-07T03:03:14;11.10;1.00
1602;DHT22;794;48.592;9.634;2023-05-07T03:05:42;11.40;1.00
1602;DHT22;794;48.592;9.634;2023-05-07T03:08:09;11.20;1.00
1602;DHT22;794;48.592;9.634;2023-05-07T03:10:37;11.10;1.00
1602;DHT22;794;48.592;9.634;2023-05-07T03:13:04;10.90;1.00
1602;DHT22;794;48.592;9.634;2023-05-07T03:15:31;11.00;1.00
1602;DHT22;794;48.592;9.634;2023-05-07T03:17:58;11.00;1.00
1602;DHT22;794;48.592;9.634;2023-05-07T03:20:25;11.00;1.00
1602;DHT22;794;48.592;9.634;2023-05-07T03:22:53;10.80;1.00
1602;DHT22;794;48.592;9.634;2023-05-07T03:25:20;11.00;1.00
1602;DHT22;794;48.592;9.634;2023-05-07T03:27:46;10.80;1.00
1602;DHT22;794;48.592;9.634;2023-05-07T03:30:13;10.90;1.00
1602;DHT22;794;48.592;9.634;2023-05-07T03:32:40;11.10;1.00
1602;DHT22;794;48.592;9.634;2023-05-07T03:35:07;11.10;1.00
1602;DHT22;794;48.592;9.634;2023-05-07T03:37:34;11.00;1.00
1602;DHT22;794;48.592;9.634;2023-05-07T03:40:03;11.00;1.00
1602;DHT22;794;48.592;9.634;2023-05-07T03:42:31;11.00;1.00
1602;DHT22;794;48.592;9.634;2023-05-07T03:44:58;11.10;1.00
1602;DHT22;794;48.592;9.634;2023-05-07T03:47:24;11.10;1.00
1602;DHT22;794;48.592;9.634;2023-05-07T03:49:51;11.10;1.00
1602;DHT22;794;48.592;9.634;2023-05-07T03:52:19;11.10;1.00
1602;DHT22;794;48.592;9.634;2023-05-07T03:54:52;10.90;1.00
1602;DHT22;794;48.592;9.634;2023-05-07T03:57:21;11.00;1.00
1602;DHT22;794;48.592;9.634;2023-05-07T03:59:47;10.70;1.00
1602;DHT22;794;48.592;9.634;2023-05-07T04:02:14;10.90;1.00
1602;DHT22;794;48.592;9.634;2023-05-07T04:04:41;10.80;1.00
1602;DHT22;794;48.592;9.634;2023-05-07T04:07:08;10.90;1.00
1602;DHT22;794;48.592;9.634;2023-05-07T04:09:35;10.90;1.00
1602;DHT22;794;48.592;9.634;2023-05-07T04:12:02;10.80;1.00
1602;DHT22;794;48.592;9.634;2023-05-07T04:14:30;10.70;1.00
1602;DHT22;794;48.592;9.634;2023-05-07T04:16:58;10.60;1.00
1602;DHT22;794;48.592;9.634;2023-05-07T04:19:25;10.60;1.00
1602;DHT22;794;48.592;9.634;2023-05-07T04:21:52;10.70;1.00
1602;DHT22;794;48.592;9.634;2023-05-07T04:24:19;10.90;1.00
1602;DHT22;794;48.592;9.634;2023-05-07T04:26:46;10.90;1.00
1602;DHT22;794;48.592;9.634;2023-05-07T04:29:13;11.00;1.00
1602;DHT22;794;48.592;9.634;2023-05-07T04:31:41;11.10;1.00
1602;DHT22;794;48.592;9.634;2023-05-07T04:34:09;11.20;1.00
1602;DHT22;794;48.592;9.634;2023-05-07T04:36:37;11.30;1.00
1602;DHT22;794;48.592;9.634;2023-05-07T04:39:04;11.10;1.00
1602;DHT22;794;48.592;9.634;2023-05-07T04:41:32;11.00;1.00
1602;DHT22;794;48.592;9.634;2023-05-07T04:43:59;11.30;1.00
1602;DHT22;794;48.592;9.634;2023-05-07T04:46:25;11.40;1.00
1602;DHT22;794;48.592;9.634;2023-05-07T04:48:54;11.30;1.00
1602;DHT22;794;48.592;9.634;2023-05-07T04:51:20;11.30;1.00
1602;DHT22;794;48.592;9.634;2023-05-07T04:53:48;11.30;1.00
1602;DHT22;794;48.592;9.634;2023-05-07T04:56:15;11.70;1.00
1602;DHT22;794;48.592;9.634;2023-05-07T04:58:43;11.60;1.00
1602;DHT22;794;48.592;9.634;2023-05-07T05:01:10;11.40;1.00
1602;DHT22;794;48.592;9.634;2023-05-07T05:03:37;11.70;1.00
1602;DHT22;794;48.592;9.634;2023-05-07T05:06:06;11.70;1.00
1602;DHT22;794;48.592;9.634;2023-05-07T05:08:33;11.90;1.00
1602;DHT22;794;48.592;9.634;2023-05-07T05:11:00;12.30;1.00
1602;DHT22;794;48.592;9.634;2023-05-07T05:13:27;12.20;1.00
1602;DHT22;794;48.592;9.634;2023-05-07T05:15:54;12.40;1.00
1602;DHT22;794;48.592;9.634;2023-05-07T05:18:21;12.70;1.00
1602;DHT22;794;48.592;9.634;2023-05-07T05:20:48;12.60;1.00
1602;DHT22;794;48.592;9.634;2023-05-07T05:23:16;13.00;1.00
1602;DHT22;794;48.592;9.634;2023-05-07T05:25:43;13.00;1.00
1602;DHT22;794;48.592;9.634;2023-05-07T05:28:11;13.10;1.00
1602;DHT22;794;48.592;9.634;2023-05-07T05:30:39;13.00;1.00
1602;DHT22;794;48.592;9.634;2023-05-07T05:33:06;13.40;1.00
1602;DHT22;794;48.592;9.634;2023-05-07T05:35:32;13.50;1.00
1602;DHT22;794;48.592;9.634;2023-05-07T05:38:00;14.00;1.00
1602;DHT22;794;48.592;9.634;2023-05-07T05:40:29;14.20;1.00
1602;DHT22;794;48.592;9.634;2023-05-07T05:42:55;14.40;1.00
1602;DHT22;794;48.592;9.634;2023-05-07T05:45:22;14.50;1.00
1602;DHT22;794;48.592;9.634;2023-05-07T05:47:49;14.70;1.00
1602;DHT22;794;48.592;9.634;2023-05-07T05:50:16;14.90;1.00
1602;DHT22;794;48.592;9.634;2023-05-07T05:52:43;15.10;1.00
1602;DHT22;794;48.592;9.634;2023-05-07T05:55:10;15.30;1.00
1602;DHT22;794;48.592;9.634;2023-05-07T05:57:38;15.40;1.00
1602;DHT22;794;48.592;9.634;2023-05-07T06:00:06;15.50;1.00
1602;DHT22;794;48.592;9.634;2023-05-07T06:02:34;15.80;1.00
1602;DHT22;794;48.592;9.634;2023-05-07T06:05:01;15.80;1.00
1602;DHT22;794;48.592;9.634;2023-05-07T06:07:28;15.90;1.00
1602;DHT22;794;48.592;9.634;2023-05-07T06:09:55;15.50;1.00
1602;DHT22;794;48.592;9.634;2023-05-07T06:12:22;16.40;1.00
1602;DHT22;794;48.592;9.634;2023-05-07T06:14:50;16.60;1.00
1602;DHT22;794;48.592;9.634;2023-05-07T06:17:17;16.70;1.00
1602;DHT22;794;48.592;9.634;2023-05-07T06:19:44;16.90;1.00
1602;DHT22;794;48.592;9.634;2023-05-07T06:22:11;16.80;1.00
1602;DHT22;794;48.592;9.634;2023-05-07T06:24:38;17.00;1.00
1602;DHT22;794;48.592;9.634;2023-05-07T06:27:05;16.90;1.00
1602;DHT22;794;48.592;9.634;2023-05-07T06:29:32;17.40;1.00
1602;DHT22;794;48.592;9.634;2023-05-07T06:32:07;17.90;1.00
1602;DHT22;794;48.592;9.634;2023-05-07T06:34:34;19.70;1.00
1602;DHT22;794;48.592;9.634;2023-05-07T06:41:57;23.30;1.00
1602;DHT22;794;48.592;9.634;2023-05-07T06:46:51;22.50;1.00
1602;DHT22;794;48.592;9.634;2023-05-07T06:49:19;23.40;1.00
1602;DHT22;794;48.592;9.634;2023-05-07T06:51:47;23.20;1.00
1602;DHT22;794;48.592;9.634;2023-05-07T06:54:14;23.20;1.00
1602;DHT22;794;48.592;9.634;2023-05-07T06:56:41;23.40;1.00
1602;DHT22;794;48.592;9.634;2023-05-07T06:59:08;23.80;1.00
1602;DHT22;794;48.592;9.634;2023-05-07T07:04:03;25.40;1.00
1602;DHT22;794;48.592;9.634;2023-05-07T07:06:31;26.10;1.00
1602;DHT22;794;48.592;9.634;2023-05-07T07:08:58;26.00;1.00
1602;DHT22;794;48.592;9.634;2023-05-07T07:11:25;24.00;1.00
1602;DHT22;794;48.592;9.634;2023-05-07T07:13:53;24.90;1.00
1602;DHT22;794;48.592;9.634;2023-05-07T07:16:20;25.70;1.00
1602;DHT22;794;48.592;9.634;2023-05-07T07:18:47;25.80;1.00
1602;DHT22;794;48.592;9.634;2023-05-07T07:21:14;25.80;1.00
1602;DHT22;794;48.592;9.634;2023-05-07T07:23:43;25.90;1.00
1602;DHT22;794;48.592;9.634;2023-05-07T07:26:10;26.20;1.00
1602;DHT22;794;48.592;9.634;2023-05-07T07:28:42;25.80;1.00
1602;DHT22;794;48.592;9.634;2023-05-07T07:31:11;26.50;1.00
1602;DHT22;794;48.592;9.634;2023-05-07T07:33:38;25.80;1.00
1602;DHT22;794;48.592;9.634;2023-05-07T07:36:06;28.10;1.00
1602;DHT22;794;48.592;9.634;2023-05-07T07:38:33;27.00;1.00
1602;DHT22;794;48.592;9.634;2023-05-07T07:41:02;27.60;1.00
1602;DHT22;794;48.592;9.634;2023-05-07T07:53:18;30.30;1.00
1602;DHT22;794;48.592;9.634;2023-05-07T07:58:14;31.50;1.00
1602;DHT22;794;48.592;9.634;2023-05-07T08:03:09;34.30;1.00
1602;DHT22;794;48.592;9.634;2023-05-07T08:10:32;29.60;1.00
1602;DHT22;794;48.592;9.634;2023-05-07T08:15:28;29.20;1.00
1602;DHT22;794;48.592;9.634;2023-05-07T08:17:55;28.20;1.00
1602;DHT22;794;48.592;9.634;2023-05-07T08:20:23;27.70;1.00
1602;DHT22;794;48.592;9.634;2023-05-07T08:22:50;27.20;1.00
1602;DHT22;794;48.592;9.634;2023-05-07T08:25:18;27.30;1.00
1602;DHT22;794;48.592;9.634;2023-05-07T08:27:45;27.40;1.00
1602;DHT22;794;48.592;9.634;2023-05-07T08:30:13;28.00;1.00
1602;DHT22;794;48.592;9.634;2023-05-07T08:32:41;27.50;1.00
1602;DHT22;794;48.592;9.634;2023-05-07T08:35:09;27.70;1.00
1602;DHT22;794;48.592;9.634;2023-05-07T08:37:36;27.50;1.00
1602;DHT22;794;48.592;9.634;2023-05-07T08:40:03;27.60;1.00
1602;DHT22;794;48.592;9.634;2023-05-07T08:42:31;26.80;1.00
1602;DHT22;794;48.592;9.634;2023-05-07T08:45:03;26.90;1.00
1602;DHT22;794;48.592;9.634;2023-05-07T08:47:40;28.10;1.00
1602;DHT22;794;48.592;9.634;2023-05-07T08:50:09;28.50;1.00
1602;DHT22;794;48.592;9.634;2023-05-07T08:52:36;29.20;1.00
1602;DHT22;794;48.592;9.634;2023-05-07T08:55:04;30.00;1.00
1602;DHT22;794;48.592;9.634;2023-05-07T09:00:02;30.20;1.00
1602;DHT22;794;48.592;9.634;2023-05-07T09:02:29;30.20;1.00
1602;DHT22;794;48.592;9.634;2023-05-07T09:04:56;29.50;1.00
1602;DHT22;794;48.592;9.634;2023-05-07T09:07:25;29.70;1.00
1602;DHT22;794;48.592;9.634;2023-05-07T09:09:52;30.60;1.00
1602;DHT22;794;48.592;9.634;2023-05-07T09:12:21;33.00;1.00
1602;DHT22;794;48.592;9.634;2023-05-07T09:14:48;32.90;1.00
1602;DHT22;794;48.592;9.634;2023-05-07T09:19:44;32.30;1.00
1602;DHT22;794;48.592;9.634;2023-05-07T09:22:12;32.00;1.00
1602;DHT22;794;48.592;9.634;2023-05-07T09:24:40;32.50;1.00
1602;DHT22;794;48.592;9.634;2023-05-07T09:27:07;32.50;1.00
1602;DHT22;794;48.592;9.634;2023-05-07T09:32:07;32.20;1.00
1602;DHT22;794;48.592;9.634;2023-05-07T09:37:01;32.00;1.00
1602;DHT22;794;48.592;9.634;2023-05-07T09:39:40;29.60;1.00
1602;DHT22;794;48.592;9.634;2023-05-07T09:42:07;28.00;1.00
1602;DHT22;794;48.592;9.634;2023-05-07T09:44:37;28.20;1.00
1602;DHT22;794;48.592;9.634;2023-05-07T09:47:05;25.60;1.00
1602;DHT22;794;48.592;9.634;2023-05-07T09:49:34;26.00;1.00
1602;DHT22;794;48.592;9.634;2023-05-07T09:52:03;26.40;1.00
1602;DHT22;794;48.592;9.634;2023-05-07T09:54:32;26.50;1.00
1602;DHT22;794;48.592;9.634;2023-05-07T09:57:06;27.20;1.00
1602;DHT22;794;48.592;9.634;2023-05-07T09:59:37;26.80;1.00
1602;DHT22;794;48.592;9.634;2023-05-07T10:02:04;26.80;1.00
1602;DHT22;794;48.592;9.634;2023-05-07T10:04:32;28.10;1.00
1602;DHT22;794;48.592;9.634;2023-05-07T10:07:04;28.70;1.00
1602;DHT22;794;48.592;9.634;2023-05-07T10:09:32;29.00;1.00
1602;DHT22;794;48.592;9.634;2023-05-07T10:12:06;26.50;1.00
1602;DHT22;794;48.592;9.634;2023-05-07T10:14:34;26.50;1.00
1602;DHT22;794;48.592;9.634;2023-05-07T10:17:02;25.70;1.00
1602;DHT22;794;48.592;9.634;2023-05-07T10:19:32;26.80;1.00
1602;DHT22;794;48.592;9.634;2023-05-07T10:22:03;26.00;1.00
1602;DHT22;794;48.592;9.634;2023-05-07T10:24:32;24.70;1.00
1602;DHT22;794;48.592;9.634;2023-05-07T10:27:02;24.20;1.00
1602;DHT22;794;48.592;9.634;2023-05-07T10:29:39;23.10;1.00
1602;DHT22;794;48.592;9.634;2023-05-07T10:32:24;24.40;1.00
1602;DHT22;794;48.592;9.634;2023-05-07T10:34:56;25.00;1.00
1602;DHT22;794;48.592;9.634;2023-05-07T10:37:24;24.80;1.00
1602;DHT22;794;48.592;9.634;2023-05-07T10:39:51;24.60;1.00
1602;DHT22;794;48.592;9.634;2023-05-07T10:42:18;24.20;1.00
1602;DHT22;794;48.592;9.634;2023-05-07T10:44:47;24.20;1.00
1602;DHT22;794;48.592;9.634;2023-05-07T10:47:16;22.90;1.00
1602;DHT22;794;48.592;9.634;2023-05-07T10:50:20;23.40;1.00
1602;DHT22;794;48.592;9.634;2023-05-07T10:55:51;23.20;1.00
1602;DHT22;794;48.592;9.634;2023-05-07T10:58:24;22.50;1.00
1602;DHT22;794;48.592;9.634;2023-05-07T11:00:56;23.30;1.00
1602;DHT22;794;48.592;9.634;2023-05-07T11:03:24;23.10;1.00
1602;DHT22;794;48.592;9.634;2023-05-07T11:06:09;23.30;1.00
1602;DHT22;794;48.592;9.634;2023-05-07T11:08:55;24.00;1.00
1602;DHT22;794;48.592;9.634;2023-05-07T11:11:46;24.30;1.00
1602;DHT22;794;48.592;9.634;2023-05-07T11:14:43;23.40;1.00
1602;DHT22;794;48.592;9.634;2023-05-07T11:17:11;22.50;1.00
1602;DHT22;794;48.592;9.634;2023-05-07T11:19:48;22.50;1.00
1602;DHT22;794;48.592;9.634;2023-05-07T11:22:37;22.70;1.00
1602;DHT22;794;48.592;9.634;2023-05-07T11:25:07;21.60;1.00
1602;DHT22;794;48.592;9.634;2023-05-07T11:27:34;21.90;1.00
1602;DHT22;794;48.592;9.634;2023-05-07T11:30:01;22.40;1.00
1602;DHT22;794;48.592;9.634;2023-05-07T11:32:30;22.30;1.00
1602;DHT22;794;48.592;9.634;2023-05-07T11:34:59;22.30;1.00
1602;DHT22;794;48.592;9.634;2023-05-07T11:37:27;22.60;1.00
1602;DHT22;794;48.592;9.634;2023-05-07T11:40:02;22.70;1.00
1602;DHT22;794;48.592;9.634;2023-05-07T11:42:32;22.30;1.00
1602;DHT22;794;48.592;9.634;2023-05-07T11:45:01;22.50;1.00
1602;DHT22;794;48.592;9.634;2023-05-07T11:47:31;22.50;1.00
1602;DHT22;794;48.592;9.634;2023-05-07T11:50:03;22.50;1.00
1602;DHT22;794;48.592;9.634;2023-05-07T11:52:31;22.30;1.00
1602;DHT22;794;48.592;9.634;2023-05-07T11:54:59;22.10;1.00
1602;DHT22;794;48.592;9.634;2023-05-07T11:57:27;22.00;1.00
1602;DHT22;794;48.592;9.634;2023-05-07T11:59:54;22.70;1.00
1602;DHT22;794;48.592;9.634;2023-05-07T12:02:21;22.30;1.00
1602;DHT22;794;48.592;9.634;2023-05-07T12:04:51;22.60;1.00
1602;DHT22;794;48.592;9.634;2023-05-07T12:07:18;23.00;1.00
1602;DHT22;794;48.592;9.634;2023-05-07T12:09:46;23.00;1.00
1602;DHT22;794;48.592;9.634;2023-05-07T12:12:13;23.30;1.00
1602;DHT22;794;48.592;9.634;2023-05-07T12:14:41;23.60;1.00
1602;DHT22;794;48.592;9.634;2023-05-07T12:17:09;23.70;1.00
1602;DHT22;794;48.592;9.634;2023-05-07T12:19:38;23.70;1.00
1602;DHT22;794;48.592;9.634;2023-05-07T12:22:07;23.80;1.00
1602;DHT22;794;48.592;9.634;2023-05-07T12:24:44;23.40;1.00
1602;DHT22;794;48.592;9.634;2023-05-07T12:27:11;23.00;1.00
1602;DHT22;794;48.592;9.634;2023-05-07T12:29:39;23.10;1.00
1602;DHT22;794;48.592;9.634;2023-05-07T12:32:13;20.70;1.00
1602;DHT22;794;48.592;9.634;2023-05-07T12:34:40;22.80;1.00
1602;DHT22;794;48.592;9.634;2023-05-07T12:37:08;22.80;1.00
1602;DHT22;794;48.592;9.634;2023-05-07T12:39:36;22.80;1.00
1602;DHT22;794;48.592;9.634;2023-05-07T12:42:03;22.80;1.00
1602;DHT22;794;48.592;9.634;2023-05-07T12:44:31;22.70;1.00
1602;DHT22;794;48.592;9.634;2023-05-07T12:47:01;22.40;1.00
1602;DHT22;794;48.592;9.634;2023-05-07T12:49:30;22.10;1.00
1602;DHT22;794;48.592;9.634;2023-05-07T12:51:57;22.20;1.00
1602;DHT22;794;48.592;9.634;2023-05-07T12:54:29;22.20;1.00
1602;DHT22;794;48.592;9.634;2023-05-07T12:57:03;22.20;1.00
1602;DHT22;794;48.592;9.634;2023-05-07T12:59:32;22.10;1.00
1602;DHT22;794;48.592;9.634;2023-05-07T13:01:59;22.20;1.00
1602;DHT22;794;48.592;9.634;2023-05-07T13:04:26;22.20;1.00
1602;DHT22;794;48.592;9.634;2023-05-07T13:06:53;22.00;1.00
1602;DHT22;794;48.592;9.634;2023-05-07T13:09:20;22.10;1.00
1602;DHT22;794;48.592;9.634;2023-05-07T13:11:48;22.20;1.00
1602;DHT22;794;48.592;9.634;2023-05-07T13:14:15;21.90;1.00
1602;DHT22;794;48.592;9.634;2023-05-07T13:16:42;21.90;1.00
1602;DHT22;794;48.592;9.634;2023-05-07T13:19:09;21.90;1.00
1602;DHT22;794;48.592;9.634;2023-05-07T13:21:36;21.90;1.00
1602;DHT22;794;48.592;9.634;2023-05-07T13:24:03;21.70;1.00
1602;DHT22;794;48.592;9.634;2023-05-07T13:26:31;21.60;1.00
1602;DHT22;794;48.592;9.634;2023-05-07T13:28:59;21.30;1.00
1602;DHT22;794;48.592;9.634;2023-05-07T13:31:26;21.20;1.00
1602;DHT22;794;48.592;9.634;2023-05-07T13:33:53;20.80;1.00
1602;DHT22;794;48.592;9.634;2023-05-07T13:36:21;20.90;1.00
1602;DHT22;794;48.592;9.634;2023-05-07T13:38:49;21.00;1.00
1602;DHT22;794;48.592;9.634;2023-05-07T13:41:17;20.80;1.00
1602;DHT22;794;48.592;9.634;2023-05-07T13:43:44;20.80;1.00
1602;DHT22;794;48.592;9.634;2023-05-07T13:46:12;20.70;1.00
1602;DHT22;794;48.592;9.634;2023-05-07T13:48:39;20.70;1.00
1602;DHT22;794;48.592;9.634;2023-05-07T13:51:06;20.60;1.00
1602;DHT22;794;48.592;9.634;2023-05-07T13:53:33;20.60;1.00
1602;DHT22;794;48.592;9.634;2023-05-07T13:56:01;20.60;1.00
1602;DHT22;794;48.592;9.634;2023-05-07T13:58:30;20.50;1.00
1602;DHT22;794;48.592;9.634;2023-05-07T14:00:57;20.30;1.00
1602;DHT22;794;48.592;9.634;2023-05-07T14:03:25;20.40;1.00
1602;DHT22;794;48.592;9.634;2023-05-07T14:05:52;20.10;1.00
1602;DHT22;794;48.592;9.634;2023-05-07T14:08:19;20.00;1.00
1602;DHT22;794;48.592;9.634;2023-05-07T14:10:46;20.20;1.00
1602;DHT22;794;48.592;9.634;2023-05-07T14:13:13;20.20;1.00
1602;DHT22;794;48.592;9.634;2023-05-07T14:15:40;20.20;1.00
1602;DHT22;794;48.592;9.634;2023-05-07T14:20:37;19.60;1.00
1602;DHT22;794;48.592;9.634;2023-05-07T14:25:32;18.60;1.00
1602;DHT22;794;48.592;9.634;2023-05-07T14:30:26;18.20;1.00
1602;DHT22;794;48.592;9.634;2023-05-07T14:32:53;18.10;1.00
1602;DHT22;794;48.592;9.634;2023-05-07T14:35:20;17.80;1.00
1602;DHT22;794;48.592;9.634;2023-05-07T14:37:48;17.60;1.00
1602;DHT22;794;48.592;9.634;2023-05-07T14:40:15;17.50;1.00
1602;DHT22;794;48.592;9.634;2023-05-07T14:42:42;17.20;1.00
1602;DHT22;794;48.592;9.634;2023-05-07T14:45:10;16.90;1.00
1602;DHT22;794;48.592;9.634;2023-05-07T14:47:37;16.90;1.00
1602;DHT22;794;48.592;9.634;2023-05-07T14:50:04;16.90;1.00
1602;DHT22;794;48.592;9.634;2023-05-07T14:52:31;16.80;1.00
1602;DHT22;794;48.592;9.634;2023-05-07T14:54:59;16.50;1.00
1602;DHT22;794;48.592;9.634;2023-05-07T14:57:26;16.80;1.00
1602;DHT22;794;48.592;9.634;2023-05-07T14:59:53;16.70;1.00
1602;DHT22;794;48.592;9.634;2023-05-07T15:02:20;16.50;1.00
1602;DHT22;794;48.592;9.634;2023-05-07T15:04:47;16.60;1.00
1602;DHT22;794;48.592;9.634;2023-05-07T15:07:16;16.60;1.00
1602;DHT22;794;48.592;9.634;2023-05-07T15:09:44;16.70;1.00
1602;DHT22;794;48.592;9.634;2023-05-07T15:12:13;16.40;1.00
1602;DHT22;794;48.592;9.634;2023-05-07T15:14:40;16.20;1.00
1602;DHT22;794;48.592;9.634;2023-05-07T15:17:06;16.10;1.00
1602;DHT22;794;48.592;9.634;2023-05-07T15:19:34;16.00;1.00
1602;DHT22;794;48.592;9.634;2023-05-07T15:22:01;15.70;1.00
1602;DHT22;794;48.592;9.634;2023-05-07T15:24:28;16.10;1.00
1602;DHT22;794;48.592;9.634;2023-05-07T15:26:56;16.10;1.00
1602;DHT22;794;48.592;9.634;2023-05-07T15:29:25;16.00;1.00
1602;DHT22;794;48.592;9.634;2023-05-07T15:31:51;15.80;1.00
1602;DHT22;794;48.592;9.634;2023-05-07T15:34:18;15.70;1.00
1602;DHT22;794;48.592;9.634;2023-05-07T15:36:46;15.70;1.00
1602;DHT22;794;48.592;9.634;2023-05-07T15:39:13;15.80;1.00
1602;DHT22;794;48.592;9.634;2023-05-07T15:41:40;15.90;1.00
1602;DHT22;794;48.592;9.634;2023-05-07T15:44:07;15.90;1.00
1602;DHT22;794;48.592;9.634;2023-05-07T15:46:35;15.90;1.00
1602;DHT22;794;48.592;9.634;2023-05-07T15:49:02;15.80;1.00
1602;DHT22;794;48.592;9.634;2023-05-07T15:51:30;16.30;1.00
1602;DHT22;794;48.592;9.634;2023-05-07T15:53:57;15.60;1.00
1602;DHT22;794;48.592;9.634;2023-05-07T15:56:24;15.50;1.00
1602;DHT22;794;48.592;9.634;2023-05-07T15:58:51;15.40;1.00
1602;DHT22;794;48.592;9.634;2023-05-07T16:01:21;15.60;1.00
1602;DHT22;794;48.592;9.634;2023-05-07T16:03:49;15.40;1.00
1602;DHT22;794;48.592;9.634;2023-05-07T16:06:16;15.70;1.00
1602;DHT22;794;48.592;9.634;2023-05-07T16:08:45;15.80;1.00
1602;DHT22;794;48.592;9.634;2023-05-07T16:11:12;15.50;1.00
1602;DHT22;794;48.592;9.634;2023-05-07T16:13:39;15.20;1.00
1602;DHT22;794;48.592;9.634;2023-05-07T16:18:36;15.00;1.00
1602;DHT22;794;48.592;9.634;2023-05-07T16:21:07;14.90;1.00
1602;DHT22;794;48.592;9.634;2023-05-07T16:23:36;15.20;1.00
1602;DHT22;794;48.592;9.634;2023-05-07T16:26:06;15.70;1.00
1602;DHT22;794;48.592;9.634;2023-05-07T16:28:33;15.40;1.00
1602;DHT22;794;48.592;9.634;2023-05-07T16:31:06;15.80;1.00
1602;DHT22;794;48.592;9.634;2023-05-07T16:33:34;15.70;1.00
1602;DHT22;794;48.592;9.634;2023-05-07T16:36:01;15.60;1.00
1602;DHT22;794;48.592;9.634;2023-05-07T16:38:29;15.40;1.00
1602;DHT22;794;48.592;9.634;2023-05-07T16:40:57;15.50;1.00
1602;DHT22;794;48.592;9.634;2023-05-07T16:43:27;15.80;1.00
1602;DHT22;794;48.592;9.634;2023-05-07T16:45:54;16.10;1.00
1602;DHT22;794;48.592;9.634;2023-05-07T16:48:21;16.30;1.00
1602;DHT22;794;48.592;9.634;2023-05-07T16:50:51;16.20;1.00
1602;DHT22;794;48.592;9.634;2023-05-07T16:53:18;16.10;1.00
1602;DHT22;794;48.592;9.634;2023-05-07T16:55:46;15.90;1.00
1602;DHT22;794;48.592;9.634;2023-05-07T16:58:15;16.20;1.00
1602;DHT22;794;48.592;9.634;2023-05-07T17:00:42;15.90;1.00
1602;DHT22;794;48.592;9.634;2023-05-07T17:03:11;16.30;1.00
1602;DHT22;794;48.592;9.634;2023-05-07T17:05:37;16.40;1.00
1602;DHT22;794;48.592;9.634;2023-05-07T17:08:04;16.50;1.00
1602;DHT22;794;48.592;9.634;2023-05-07T17:13:03;18.00;1.00
1602;DHT22;794;48.592;9.634;2023-05-07T17:15:32;16.50;1.00
1602;DHT22;794;48.592;9.634;2023-05-07T17:17:59;16.50;1.00
1602;DHT22;794;48.592;9.634;2023-05-07T17:20:26;16.60;1.00
1602;DHT22;794;48.592;9.634;2023-05-07T17:22:53;16.60;1.00
1602;DHT22;794;48.592;9.634;2023-05-07T17:25:20;16.60;1.00
1602;DHT22;794;48.592;9.634;2023-05-07T17:27:47;16.70;1.00
1602;DHT22;794;48.592;9.634;2023-05-07T17:33:52;16.70;1.00
1602;DHT22;794;48.592;9.634;2023-05-07T17:36:20;16.90;1.00
1602;DHT22;794;48.592;9.634;2023-05-07T17:41:15;16.60;1.00
1602;DHT22;794;48.592;9.634;2023-05-07T17:46:09;16.60;1.00